Time;durP1;ratioP1;P1;durP2;ratioP2;P2;SDS_P1;SDS_P2;PMS_P1;PMS_P2;Temp;Humidity;BMP_temperature;BMP_pressure;BME280_temperature;BME280_humidity;BME280_pressure;Samples;Min_cycle;Max_cycle;Signal;HPM_P1;HPM_P2
2022/11/19 00:01:25;;;;;;;21.90;11.40;;;;;;;;;;5055826;28;21207;-66
2022/11/19 00:03:52;;;;;;;17.43;10.27;;;;;;;;;;5071220;28;20989;-65
2022/11/19 00:06:22;;;;;;;31.60;14.30;;;;;;;;;;5070731;28;20466;-66
2022/11/19 00:08:49;;;;;;;21.00;10.97;;;;;;;;;;5060137;28;20856;-66
2022/11/19 00:14:04;;;;;;;23.57;11.77;;;;;;;;;;5058663;28;20456;-66
2022/11/19 00:16:31;;;;;;;20.77;11.30;;;;;;;;;;5070432;28;20428;-66
2022/11/19 00:18:58;;;;;;;18.43;11.03;;;;;;;;;;5052226;28;20449;-66
2022/11/19 00:21:24;;;;;;;24.70;12.60;;;;;;;;;;5050367;28;20828;-66
2022/11/19 00:23:54;;;;;;;26.17;13.27;;;;;;;;;;5050345;28;20421;-66
2022/11/19 00:26:20;;;;;;;28.97;13.20;;;;;;;;;;5032234;28;20500;-66
2022/11/19 00:29:04;;;;;;;20.93;11.67;;;;;;;;;;5039550;28;20420;-66
2022/11/19 00:31:31;;;;;;;24.73;12.50;;;;;;;;;;5052140;28;20877;-66
2022/11/19 00:33:58;;;;;;;22.77;12.47;;;;;;;;;;5049514;28;20948;-66
2022/11/19 00:36:25;;;;;;;24.30;13.53;;;;;;;;;;5052156;28;20448;-66
2022/11/19 00:38:51;;;;;;;25.23;13.50;;;;;;;;;;5047241;28;20467;-66
2022/11/19 00:41:18;;;;;;;25.73;13.23;;;;;;;;;;5066898;28;20476;-66
2022/11/19 00:43:47;;;;;;;24.03;12.43;;;;;;;;;;5070571;28;20433;-66
2022/11/19 00:46:21;;;;;;;21.73;12.33;;;;;;;;;;5054982;28;20473;-66
2022/11/19 00:48:49;;;;;;;23.30;13.57;;;;;;;;;;5049924;28;20505;-66
2022/11/19 00:51:16;;;;;;;23.17;12.93;;;;;;;;;;5064430;28;20893;-66
2022/11/19 00:53:42;;;;;;;26.47;13.47;;;;;;;;;;5051339;28;20452;-66
2022/11/19 00:56:10;;;;;;;26.53;13.00;;;;;;;;;;5032105;28;20413;-66
2022/11/19 00:58:37;;;;;;;24.07;12.73;;;;;;;;;;5028739;28;21232;-66
2022/11/19 01:01:03;;;;;;;22.40;13.80;;;;;;;;;;5030433;28;20858;-66
2022/11/19 01:03:32;;;;;;;22.77;13.23;;;;;;;;;;5029997;28;20419;-66
2022/11/19 01:05:58;;;;;;;23.47;12.87;;;;;;;;;;5029670;28;20827;-66
2022/11/19 01:08:25;;;;;;;21.43;12.50;;;;;;;;;;5041903;28;20437;-66
2022/11/19 01:10:52;;;;;;;24.80;12.50;;;;;;;;;;5045680;28;20441;-66
2022/11/19 01:13:33;;;;;;;22.83;12.73;;;;;;;;;;5065080;28;20454;-66
2022/11/19 01:16:03;;;;;;;21.43;12.50;;;;;;;;;;5054300;28;20449;-66
2022/11/19 01:18:29;;;;;;;23.40;12.60;;;;;;;;;;5047108;28;20529;-66
2022/11/19 01:20:56;;;;;;;24.20;12.47;;;;;;;;;;5048528;28;20475;-66
2022/11/19 01:23:22;;;;;;;22.70;13.03;;;;;;;;;;5048602;28;20437;-66
2022/11/19 01:25:49;;;;;;;22.03;12.33;;;;;;;;;;5045587;28;20461;-66
2022/11/19 01:28:15;;;;;;;22.40;12.40;;;;;;;;;;5049423;28;20521;-66
2022/11/19 01:30:42;;;;;;;25.43;13.03;;;;;;;;;;5030801;28;20949;-66
2022/11/19 01:33:09;;;;;;;23.00;12.90;;;;;;;;;;5039986;28;20482;-66
2022/11/19 01:35:35;;;;;;;20.57;12.30;;;;;;;;;;5043007;28;20457;-66
2022/11/19 01:38:02;;;;;;;21.57;12.37;;;;;;;;;;5040291;28;20436;-66
2022/11/19 01:40:28;;;;;;;20.20;11.40;;;;;;;;;;5032946;28;20957;-66
2022/11/19 01:42:55;;;;;;;21.63;11.77;;;;;;;;;;5032538;28;20473;-66
2022/11/19 01:45:27;;;;;;;21.27;12.13;;;;;;;;;;5044212;28;20460;-66
2022/11/19 01:47:54;;;;;;;22.87;13.07;;;;;;;;;;5019545;28;20442;-66
2022/11/19 01:50:20;;;;;;;24.03;12.40;;;;;;;;;;5034772;28;20477;-66
2022/11/19 01:53:07;;;;;;;22.30;12.10;;;;;;;;;;5049204;28;21149;-65
2022/11/19 01:55:34;;;;;;;20.73;12.67;;;;;;;;;;5062841;28;20856;-66
2022/11/19 01:58:01;;;;;;;22.43;12.60;;;;;;;;;;5047122;28;20503;-65
2022/11/19 02:00:27;;;;;;;22.00;12.67;;;;;;;;;;5054415;28;20440;-66
2022/11/19 02:02:57;;;;;;;24.53;12.37;;;;;;;;;;5048638;28;20449;-65
2022/11/19 02:05:24;;;;;;;23.07;12.70;;;;;;;;;;5059058;28;20483;-65
2022/11/19 02:07:52;;;;;;;22.27;11.93;;;;;;;;;;5042725;28;20481;-66
2022/11/19 02:10:19;;;;;;;25.17;12.87;;;;;;;;;;5049494;28;20546;-66
2022/11/19 02:13:03;;;;;;;21.13;11.40;;;;;;;;;;5065214;28;20490;-65
2022/11/19 02:15:29;;;;;;;22.77;13.27;;;;;;;;;;5067793;28;20539;-65
2022/11/19 02:17:56;;;;;;;24.53;12.43;;;;;;;;;;5067630;28;20448;-65
2022/11/19 02:20:31;;;;;;;23.60;12.47;;;;;;;;;;5067823;28;20876;-65
2022/11/19 02:23:16;;;;;;;24.40;13.00;;;;;;;;;;5058425;28;20973;-65
2022/11/19 02:25:51;;;;;;;22.10;12.90;;;;;;;;;;5057998;28;20436;-65
2022/11/19 02:28:37;;;;;;;24.83;13.10;;;;;;;;;;5068886;28;20435;-65
2022/11/19 02:31:17;;;;;;;21.23;11.97;;;;;;;;;;5041316;28;20448;-65
2022/11/19 02:34:07;;;;;;;25.23;13.50;;;;;;;;;;5050405;28;20518;-65
2022/11/19 02:36:45;;;;;;;27.20;12.97;;;;;;;;;;5068327;28;20452;-65
2022/11/19 02:39:15;;;;;;;25.13;13.63;;;;;;;;;;5046857;28;20465;-65
2022/11/19 02:41:42;;;;;;;25.57;14.07;;;;;;;;;;5052427;28;20453;-66
2022/11/19 02:47:03;;;;;;;24.47;12.77;;;;;;;;;;5048752;28;20496;-65
2022/11/19 02:49:30;;;;;;;20.13;11.67;;;;;;;;;;5049622;28;20527;-66
2022/11/19 02:51:56;;;;;;;23.63;12.17;;;;;;;;;;5019354;28;20514;-65
2022/11/19 02:54:41;;;;;;;22.30;11.87;;;;;;;;;;5064795;28;20452;-65
2022/11/19 02:57:08;;;;;;;18.97;9.97;;;;;;;;;;5046429;28;20496;-66
2022/11/19 03:05:27;;;;;;;20.30;9.97;;;;;;;;;;5049137;28;20448;-65
2022/11/19 03:07:53;;;;;;;19.10;10.30;;;;;;;;;;5070846;28;20502;-65
2022/11/19 03:10:21;;;;;;;21.10;11.00;;;;;;;;;;5053215;28;20432;-65
2022/11/19 03:19:03;;;;;;;18.00;9.03;;;;;;;;;;5052594;28;20435;-65
2022/11/19 03:21:32;;;;;;;17.33;8.67;;;;;;;;;;5071994;28;20574;-65
2022/11/19 03:23:59;;;;;;;18.63;9.63;;;;;;;;;;5046462;28;20475;-65
2022/11/19 03:26:29;;;;;;;15.87;8.10;;;;;;;;;;5051253;28;20563;-65
2022/11/19 03:28:57;;;;;;;19.20;10.03;;;;;;;;;;5058359;28;20501;-65
2022/11/19 03:31:43;;;;;;;17.70;10.00;;;;;;;;;;5057836;28;20425;-65
2022/11/19 03:34:10;;;;;;;19.87;11.33;;;;;;;;;;5038066;28;21034;-66
2022/11/19 03:36:38;;;;;;;20.60;11.37;;;;;;;;;;5037120;28;20975;-65
2022/11/19 03:39:07;;;;;;;25.27;12.40;;;;;;;;;;5029881;28;20450;-65
2022/11/19 03:41:34;;;;;;;22.93;11.73;;;;;;;;;;5071051;28;20489;-65
2022/11/19 03:44:20;;;;;;;18.50;9.67;;;;;;;;;;5044716;28;20509;-66
2022/11/19 03:46:48;;;;;;;17.23;9.40;;;;;;;;;;5051110;28;20548;-65
2022/11/19 03:49:14;;;;;;;16.13;8.40;;;;;;;;;;5031182;28;20426;-66
2022/11/19 03:51:43;;;;;;;14.07;8.57;;;;;;;;;;5039261;28;20568;-66
2022/11/19 03:54:09;;;;;;;16.33;9.13;;;;;;;;;;5049089;28;20484;-66
2022/11/19 03:56:36;;;;;;;18.47;9.13;;;;;;;;;;5049891;28;20501;-66
2022/11/19 03:59:03;;;;;;;14.23;8.80;;;;;;;;;;5065381;28;20463;-65
2022/11/19 04:01:30;;;;;;;15.37;8.90;;;;;;;;;;5069524;28;20824;-65
2022/11/19 04:06:41;;;;;;;16.30;8.93;;;;;;;;;;5071205;28;20459;-65
2022/11/19 04:09:08;;;;;;;16.27;9.00;;;;;;;;;;5050282;28;20971;-66
2022/11/19 04:11:35;;;;;;;14.90;8.67;;;;;;;;;;5053943;28;20437;-66
2022/11/19 04:14:02;;;;;;;13.40;8.27;;;;;;;;;;5058292;28;20516;-66
2022/11/19 04:16:29;;;;;;;16.07;8.97;;;;;;;;;;5064443;28;20459;-66
2022/11/19 04:18:55;;;;;;;15.83;8.43;;;;;;;;;;5067381;28;20938;-66
2022/11/19 04:21:22;;;;;;;16.03;9.17;;;;;;;;;;5059689;28;20935;-66
2022/11/19 04:23:48;;;;;;;14.60;8.73;;;;;;;;;;5065696;28;20543;-67
2022/11/19 04:26:15;;;;;;;20.30;9.30;;;;;;;;;;5043852;28;20450;-67
2022/11/19 04:28:42;;;;;;;14.70;9.17;;;;;;;;;;5030605;28;20478;-67
2022/11/19 04:31:08;;;;;;;15.97;9.17;;;;;;;;;;5056872;28;20437;-67
2022/11/19 04:33:42;;;;;;;14.33;8.30;;;;;;;;;;5071097;28;20493;-67
2022/11/19 04:36:09;;;;;;;15.20;8.80;;;;;;;;;;5052139;28;21026;-66
2022/11/19 04:38:36;;;;;;;13.87;7.90;;;;;;;;;;5044807;28;20461;-67
2022/11/19 04:41:03;;;;;;;15.63;8.40;;;;;;;;;;5062172;28;20480;-67
2022/11/19 04:43:29;;;;;;;14.03;8.37;;;;;;;;;;5033329;28;20450;-67
2022/11/19 04:45:56;;;;;;;13.87;8.27;;;;;;;;;;5058513;28;20451;-66
2022/11/19 04:48:23;;;;;;;18.20;8.97;;;;;;;;;;5057871;28;20571;-68
2022/11/19 04:50:49;;;;;;;14.30;8.33;;;;;;;;;;5056749;28;20447;-66
2022/11/19 04:53:16;;;;;;;12.50;7.53;;;;;;;;;;5068885;28;20502;-66
2022/11/19 04:55:42;;;;;;;13.73;8.50;;;;;;;;;;5060528;28;20550;-66
2022/11/19 04:58:09;;;;;;;11.40;7.40;;;;;;;;;;5049907;28;20884;-66
2022/11/19 05:00:36;;;;;;;13.63;7.90;;;;;;;;;;5049471;28;20456;-65
2022/11/19 05:03:02;;;;;;;12.67;7.87;;;;;;;;;;5068873;28;20457;-67
2022/11/19 05:05:29;;;;;;;14.13;8.03;;;;;;;;;;5050647;28;20532;-66
2022/11/19 05:07:55;;;;;;;14.27;8.73;;;;;;;;;;5067617;28;20487;-66
2022/11/19 05:10:22;;;;;;;15.73;8.80;;;;;;;;;;5064919;28;20856;-66
2022/11/19 05:12:49;;;;;;;17.93;9.13;;;;;;;;;;5059795;28;20454;-66
2022/11/19 05:15:15;;;;;;;16.40;8.80;;;;;;;;;;5067222;28;20440;-67
2022/11/19 05:17:43;;;;;;;15.47;8.83;;;;;;;;;;5054218;28;20444;-66
2022/11/19 05:20:09;;;;;;;15.13;9.30;;;;;;;;;;5060356;28;20429;-67
2022/11/19 05:22:36;;;;;;;15.13;8.83;;;;;;;;;;5056412;28;20486;-67
2022/11/19 05:25:05;;;;;;;16.07;9.43;;;;;;;;;;5059310;28;20436;-66
2022/11/19 05:27:31;;;;;;;15.30;9.03;;;;;;;;;;5052404;28;20503;-66
2022/11/19 05:29:58;;;;;;;16.03;9.23;;;;;;;;;;5041203;28;20426;-67
2022/11/19 05:32:25;;;;;;;16.50;9.07;;;;;;;;;;5049437;28;21161;-66
2022/11/19 05:34:51;;;;;;;17.13;9.77;;;;;;;;;;5028275;28;20522;-67
2022/11/19 05:37:18;;;;;;;16.97;9.53;;;;;;;;;;5049328;28;20528;-66
2022/11/19 05:39:44;;;;;;;14.63;9.00;;;;;;;;;;5069555;28;20511;-67
2022/11/19 05:42:11;;;;;;;18.03;10.13;;;;;;;;;;5050442;28;20463;-66
2022/11/19 05:44:38;;;;;;;15.77;9.60;;;;;;;;;;5069256;28;20844;-66
2022/11/19 05:47:04;;;;;;;13.73;8.50;;;;;;;;;;5053906;28;20481;-66
2022/11/19 05:49:32;;;;;;;16.20;9.63;;;;;;;;;;5049849;28;20453;-66
2022/11/19 05:51:59;;;;;;;17.23;8.63;;;;;;;;;;5065887;28;20454;-66
2022/11/19 05:54:25;;;;;;;15.13;9.20;;;;;;;;;;5059453;28;20534;-66
2022/11/19 05:57:09;;;;;;;16.13;9.30;;;;;;;;;;5045224;28;20425;-66
2022/11/19 05:59:37;;;;;;;16.53;9.20;;;;;;;;;;5057422;28;20448;-66
2022/11/19 06:02:21;;;;;;;15.33;8.97;;;;;;;;;;5064237;28;20581;-67
2022/11/19 06:04:48;;;;;;;19.80;10.17;;;;;;;;;;5048950;28;20770;-66
2022/11/19 06:07:32;;;;;;;16.60;9.73;;;;;;;;;;5059342;28;20448;-66
2022/11/19 06:09:59;;;;;;;18.53;10.70;;;;;;;;;;5060103;28;20442;-66
2022/11/19 06:12:26;;;;;;;16.87;9.43;;;;;;;;;;5064911;28;21029;-66
2022/11/19 06:14:52;;;;;;;17.57;9.80;;;;;;;;;;5062162;28;20484;-67
2022/11/19 06:17:19;;;;;;;15.00;9.40;;;;;;;;;;5052924;28;20425;-67
2022/11/19 06:19:46;;;;;;;18.30;10.77;;;;;;;;;;5031711;28;20444;-66
2022/11/19 06:22:12;;;;;;;17.83;10.77;;;;;;;;;;5043279;28;20460;-66
2022/11/19 06:24:39;;;;;;;16.33;10.47;;;;;;;;;;5072690;28;20456;-67
2022/11/19 06:27:06;;;;;;;18.47;10.70;;;;;;;;;;5071716;28;20523;-66
2022/11/19 06:29:32;;;;;;;18.90;10.77;;;;;;;;;;5051714;28;20990;-66
2022/11/19 06:31:59;;;;;;;16.80;9.57;;;;;;;;;;5051647;28;20782;-66
2022/11/19 06:34:26;;;;;;;17.23;9.40;;;;;;;;;;5066953;28;20528;-67
2022/11/19 06:36:52;;;;;;;14.80;8.83;;;;;;;;;;5053668;28;20433;-66
2022/11/19 06:39:19;;;;;;;14.93;9.47;;;;;;;;;;5052498;28;20762;-67
2022/11/19 06:41:47;;;;;;;14.37;8.57;;;;;;;;;;5051436;28;20844;-67
2022/11/19 06:44:14;;;;;;;15.87;9.63;;;;;;;;;;5071196;28;20440;-67
2022/11/19 06:46:40;;;;;;;15.60;9.37;;;;;;;;;;5059847;28;20452;-66
2022/11/19 06:49:07;;;;;;;16.23;8.97;;;;;;;;;;5054847;28;20827;-67
2022/11/19 06:51:34;;;;;;;15.03;9.03;;;;;;;;;;5060760;28;20439;-67
2022/11/19 06:54:01;;;;;;;15.73;9.13;;;;;;;;;;5071945;28;20466;-67
2022/11/19 06:56:28;;;;;;;14.60;8.97;;;;;;;;;;5062469;28;21019;-67
2022/11/19 06:58:57;;;;;;;18.07;9.83;;;;;;;;;;5051678;28;20449;-67
2022/11/19 07:01:23;;;;;;;16.10;9.83;;;;;;;;;;5066986;28;20444;-66
2022/11/19 07:03:50;;;;;;;13.63;9.10;;;;;;;;;;5048259;28;20433;-66
2022/11/19 07:06:16;;;;;;;18.93;11.30;;;;;;;;;;5064967;28;20935;-66
2022/11/19 07:08:43;;;;;;;19.70;12.17;;;;;;;;;;5071900;28;20480;-66
2022/11/19 07:14:06;;;;;;;17.43;10.73;;;;;;;;;;5043159;28;20453;-66
2022/11/19 07:16:33;;;;;;;19.70;10.63;;;;;;;;;;5051141;28;20472;-66
2022/11/19 07:19:00;;;;;;;17.73;10.50;;;;;;;;;;5064791;28;20464;-66
2022/11/19 07:21:44;;;;;;;20.53;11.63;;;;;;;;;;5062052;28;20418;-67
2022/11/19 07:24:11;;;;;;;16.63;10.83;;;;;;;;;;5069736;28;20444;-67
2022/11/19 07:26:56;;;;;;;16.47;10.60;;;;;;;;;;5070522;28;20432;-66
2022/11/19 07:29:22;;;;;;;19.83;11.47;;;;;;;;;;5066945;28;20449;-66
2022/11/19 07:32:06;;;;;;;21.20;11.33;;;;;;;;;;5060509;28;20431;-66
2022/11/19 07:34:33;;;;;;;20.70;11.90;;;;;;;;;;5069579;28;20455;-67
2022/11/19 07:37:00;;;;;;;19.37;11.73;;;;;;;;;;5054686;28;20448;-67
2022/11/19 07:39:27;;;;;;;20.90;11.57;;;;;;;;;;5042924;28;20540;-67
2022/11/19 07:44:39;;;;;;;17.20;10.37;;;;;;;;;;5051163;28;20445;-66
2022/11/19 07:47:06;;;;;;;18.70;11.07;;;;;;;;;;5050514;28;20498;-66
2022/11/19 07:49:33;;;;;;;19.70;10.93;;;;;;;;;;5066441;28;20462;-67
2022/11/19 07:51:59;;;;;;;19.50;12.10;;;;;;;;;;5051887;28;20437;-66
2022/11/19 07:54:26;;;;;;;19.63;11.73;;;;;;;;;;5063138;28;20480;-66
2022/11/19 07:56:54;;;;;;;20.70;11.37;;;;;;;;;;5069948;28;20444;-67
2022/11/19 07:59:21;;;;;;;19.40;11.70;;;;;;;;;;5069994;28;21001;-67
2022/11/19 08:01:48;;;;;;;18.77;11.37;;;;;;;;;;5067137;28;20456;-67
2022/11/19 08:04:15;;;;;;;24.93;12.27;;;;;;;;;;5050706;28;20449;-66
2022/11/19 08:06:41;;;;;;;19.70;11.80;;;;;;;;;;5064017;28;20448;-67
2022/11/19 08:09:08;;;;;;;23.93;12.03;;;;;;;;;;5051380;28;20516;-67
2022/11/19 08:11:35;;;;;;;18.50;11.40;;;;;;;;;;5029490;28;20871;-67
2022/11/19 08:14:01;;;;;;;20.00;12.30;;;;;;;;;;5068584;28;20440;-67
2022/11/19 08:19:14;;;;;;;18.67;11.73;;;;;;;;;;5066333;28;20434;-67
2022/11/19 08:21:41;;;;;;;17.80;11.27;;;;;;;;;;5063687;28;21893;-67
2022/11/19 08:24:08;;;;;;;15.73;10.03;;;;;;;;;;5069672;28;20534;-67
2022/11/19 08:26:35;;;;;;;18.47;11.10;;;;;;;;;;5046589;28;20473;-67
2022/11/19 08:29:02;;;;;;;18.93;10.33;;;;;;;;;;5051512;28;20525;-67
2022/11/19 08:31:29;;;;;;;18.47;11.13;;;;;;;;;;5061323;28;20472;-67
2022/11/19 08:34:14;;;;;;;16.60;9.97;;;;;;;;;;5066767;28;20447;-67
2022/11/19 08:36:41;;;;;;;16.27;9.97;;;;;;;;;;5055585;28;20465;-67
2022/11/19 08:39:08;;;;;;;17.53;10.37;;;;;;;;;;5065264;28;20501;-67
2022/11/19 08:44:21;;;;;;;18.10;10.27;;;;;;;;;;5066379;28;20444;-67
2022/11/19 08:46:49;;;;;;;14.73;9.70;;;;;;;;;;5042547;28;20956;-67
2022/11/19 08:49:16;;;;;;;17.33;11.07;;;;;;;;;;5062359;28;20905;-67
2022/11/19 08:51:43;;;;;;;21.57;10.43;;;;;;;;;;5032115;28;20426;-67
2022/11/19 08:54:11;;;;;;;19.60;10.43;;;;;;;;;;5059869;28;20556;-67
2022/11/19 08:56:38;;;;;;;14.80;9.77;;;;;;;;;;5060598;28;20476;-68
2022/11/19 08:59:05;;;;;;;19.10;10.33;;;;;;;;;;5062929;28;20494;-67
2022/11/19 09:01:32;;;;;;;17.07;10.03;;;;;;;;;;5069338;28;20986;-67
2022/11/19 09:03:59;;;;;;;18.20;10.60;;;;;;;;;;5044879;28;20999;-67
2022/11/19 09:06:26;;;;;;;16.77;10.00;;;;;;;;;;5067661;28;20424;-67
2022/11/19 09:08:53;;;;;;;15.57;9.83;;;;;;;;;;5059366;28;20572;-68
2022/11/19 09:11:20;;;;;;;16.13;9.87;;;;;;;;;;5069343;28;20439;-67
2022/11/19 09:13:48;;;;;;;17.10;9.87;;;;;;;;;;5070159;28;20455;-67
2022/11/19 09:16:14;;;;;;;15.00;9.20;;;;;;;;;;5040079;28;21015;-67
2022/11/19 09:18:41;;;;;;;19.47;10.37;;;;;;;;;;5065990;28;20491;-67
2022/11/19 09:21:08;;;;;;;18.00;10.70;;;;;;;;;;5061210;28;20766;-67
2022/11/19 09:23:35;;;;;;;15.63;9.40;;;;;;;;;;5070720;28;20429;-67
2022/11/19 09:26:06;;;;;;;17.80;9.90;;;;;;;;;;5047093;28;20437;-67
2022/11/19 09:28:33;;;;;;;15.73;9.33;;;;;;;;;;5049838;28;20469;-67
2022/11/19 09:31:01;;;;;;;17.23;10.63;;;;;;;;;;5062075;28;20943;-67
2022/11/19 09:33:28;;;;;;;17.30;9.83;;;;;;;;;;5071405;28;20436;-67
2022/11/19 09:35:54;;;;;;;20.47;11.97;;;;;;;;;;5038437;28;20442;-68
2022/11/19 09:38:21;;;;;;;20.13;11.27;;;;;;;;;;5031052;28;20457;-67
2022/11/19 09:40:49;;;;;;;17.50;10.20;;;;;;;;;;5064931;28;20482;-67
2022/11/19 09:43:42;;;;;;;14.77;9.27;;;;;;;;;;5059414;28;20520;-67
2022/11/19 09:46:29;;;;;;;18.33;10.93;;;;;;;;;;5044910;28;20441;-67
2022/11/19 09:48:58;;;;;;;15.73;10.07;;;;;;;;;;5048583;28;21253;-67
2022/11/19 09:51:28;;;;;;;17.20;10.47;;;;;;;;;;5050664;28;20786;-68
2022/11/19 09:53:56;;;;;;;18.90;10.27;;;;;;;;;;5064757;28;20441;-68
2022/11/19 09:56:25;;;;;;;17.47;9.13;;;;;;;;;;5062491;28;20472;-67
2022/11/19 09:58:52;;;;;;;16.23;11.00;;;;;;;;;;5066682;28;20586;-67
2022/11/19 10:01:19;;;;;;;21.50;12.57;;;;;;;;;;5070634;28;20428;-67
2022/11/19 10:04:03;;;;;;;17.37;10.70;;;;;;;;;;5059111;28;20468;-67
2022/11/19 10:06:59;;;;;;;15.83;9.90;;;;;;;;;;5069546;28;21306;-67
2022/11/19 10:09:29;;;;;;;19.00;9.53;;;;;;;;;;5008566;28;20483;-67
2022/11/19 10:12:15;;;;;;;16.57;9.63;;;;;;;;;;5045852;28;20478;-67
2022/11/19 10:15:08;;;;;;;15.57;9.20;;;;;;;;;;5056602;28;20483;-67
2022/11/19 10:17:34;;;;;;;16.37;9.80;;;;;;;;;;5057609;28;20448;-67
2022/11/19 10:20:13;;;;;;;15.97;9.93;;;;;;;;;;5066110;28;20472;-67
2022/11/19 10:23:03;;;;;;;14.80;9.03;;;;;;;;;;5070763;28;20439;-66
2022/11/19 10:25:35;;;;;;;15.50;8.90;;;;;;;;;;5030738;28;20433;-67
2022/11/19 10:28:10;;;;;;;16.37;10.13;;;;;;;;;;5040238;28;21071;-67
2022/11/19 10:30:37;;;;;;;16.13;9.77;;;;;;;;;;5045800;28;20833;-67
2022/11/19 10:33:14;;;;;;;16.73;9.50;;;;;;;;;;5046899;28;20445;-67
2022/11/19 10:35:43;;;;;;;15.73;9.33;;;;;;;;;;5042329;28;20492;-67
2022/11/19 10:38:15;;;;;;;17.33;9.87;;;;;;;;;;5040839;28;20450;-67
2022/11/19 10:40:45;;;;;;;16.87;9.37;;;;;;;;;;5039675;28;20450;-67
2022/11/19 10:43:21;;;;;;;15.57;9.43;;;;;;;;;;5038529;28;20485;-67
2022/11/19 10:45:49;;;;;;;13.63;9.20;;;;;;;;;;5055693;28;20454;-67
2022/11/19 10:48:20;;;;;;;12.57;9.00;;;;;;;;;;5055684;28;20514;-67
2022/11/19 10:50:46;;;;;;;15.93;9.50;;;;;;;;;;5038172;28;20524;-67
2022/11/19 10:53:30;;;;;;;15.20;9.13;;;;;;;;;;5054252;28;20524;-67
2022/11/19 10:55:58;;;;;;;14.47;8.50;;;;;;;;;;5038922;28;21045;-67
2022/11/19 10:58:28;;;;;;;13.67;8.87;;;;;;;;;;5046639;28;20793;-67
2022/11/19 11:00:55;;;;;;;15.33;8.73;;;;;;;;;;5038883;28;20442;-67
2022/11/19 11:03:26;;;;;;;15.10;9.00;;;;;;;;;;5048830;28;20520;-67
2022/11/19 11:06:04;;;;;;;14.83;9.27;;;;;;;;;;5059618;28;20441;-67
2022/11/19 11:08:31;;;;;;;13.83;8.53;;;;;;;;;;5061572;28;20468;-67
2022/11/19 11:10:58;;;;;;;12.57;8.53;;;;;;;;;;5058696;28;20932;-67
2022/11/19 11:16:44;;;;;;;14.97;9.13;;;;;;;;;;5056367;28;20924;-67
2022/11/19 11:19:15;;;;;;;16.87;8.63;;;;;;;;;;5052807;28;20464;-66
2022/11/19 11:21:45;;;;;;;14.33;8.80;;;;;;;;;;5072354;28;20435;-67
2022/11/19 11:24:12;;;;;;;14.83;8.80;;;;;;;;;;5059480;28;20437;-67
2022/11/19 11:26:39;;;;;;;15.73;9.30;;;;;;;;;;5045594;28;20796;-66
2022/11/19 11:29:09;;;;;;;15.73;8.90;;;;;;;;;;5048227;28;20480;-67
2022/11/19 11:31:39;;;;;;;13.70;8.60;;;;;;;;;;5071792;28;20842;-69
2022/11/19 11:34:08;;;;;;;15.30;9.03;;;;;;;;;;5069823;28;20432;-67
2022/11/19 11:36:35;;;;;;;14.40;8.53;;;;;;;;;;5052194;28;20996;-70
2022/11/19 11:39:02;;;;;;;15.97;8.93;;;;;;;;;;5045101;28;20462;-66
2022/11/19 11:41:32;;;;;;;14.13;9.20;;;;;;;;;;5052612;28;20439;-70
2022/11/19 11:44:19;;;;;;;13.67;8.23;;;;;;;;;;5046205;28;20446;-71
2022/11/19 11:46:50;;;;;;;12.33;8.23;;;;;;;;;;5042975;28;20495;-71
2022/11/19 11:49:50;;;;;;;12.77;8.77;;;;;;;;;;5051727;28;20484;-71
2022/11/19 11:52:18;;;;;;;17.50;9.13;;;;;;;;;;5028903;28;20461;-71
2022/11/19 11:54:55;;;;;;;15.57;8.53;;;;;;;;;;5047018;28;20447;-71
2022/11/19 11:57:23;;;;;;;14.90;8.87;;;;;;;;;;5050478;28;20453;-71
2022/11/19 11:59:49;;;;;;;14.97;9.00;;;;;;;;;;5073017;28;20429;-71
2022/11/19 12:02:25;;;;;;;12.87;7.40;;;;;;;;;;5053245;28;20440;-71
2022/11/19 12:04:53;;;;;;;16.73;9.63;;;;;;;;;;5042207;28;20550;-71
2022/11/19 12:07:39;;;;;;;17.20;9.87;;;;;;;;;;5049599;28;20418;-71
2022/11/19 12:10:24;;;;;;;14.87;8.60;;;;;;;;;;5061943;28;20474;-70
2022/11/19 12:13:03;;;;;;;14.97;9.03;;;;;;;;;;5031286;28;20907;-71
2022/11/19 12:15:40;;;;;;;18.23;9.20;;;;;;;;;;5051719;28;20433;-71
2022/11/19 12:18:13;;;;;;;14.93;8.63;;;;;;;;;;5021572;28;20426;-71
2022/11/19 12:20:42;;;;;;;15.50;9.23;;;;;;;;;;5058467;28;20440;-71
2022/11/19 12:23:12;;;;;;;17.23;9.70;;;;;;;;;;5068130;28;20460;-71
2022/11/19 12:25:50;;;;;;;14.60;8.43;;;;;;;;;;5066602;28;20430;-71
2022/11/19 12:28:20;;;;;;;14.10;8.63;;;;;;;;;;5059346;28;20847;-71
2022/11/19 12:31:05;;;;;;;15.10;9.23;;;;;;;;;;5068002;28;20452;-74
2022/11/19 12:34:01;;;;;;;16.67;8.80;;;;;;;;;;5057950;28;20464;-74
2022/11/19 12:36:27;;;;;;;16.27;9.50;;;;;;;;;;4979676;28;20448;-74
2022/11/19 12:39:14;;;;;;;18.93;10.47;;;;;;;;;;5050304;28;20464;-74
2022/11/19 12:41:48;;;;;;;23.90;11.00;;;;;;;;;;5036035;28;20553;-74
2022/11/19 12:44:32;;;;;;;20.53;11.30;;;;;;;;;;5027374;28;20424;-73
2022/11/19 12:46:59;;;;;;;19.30;11.57;;;;;;;;;;5049189;28;20533;-73
2022/11/19 12:49:28;;;;;;;18.10;11.47;;;;;;;;;;5058844;28;20481;-74
2022/11/19 12:52:02;;;;;;;21.57;10.50;;;;;;;;;;5043023;28;20433;-73
2022/11/19 12:54:40;;;;;;;19.40;11.50;;;;;;;;;;5069345;28;20491;-71
2022/11/19 12:57:09;;;;;;;20.57;12.43;;;;;;;;;;5043061;28;20453;-73
2022/11/19 13:00:05;;;;;;;21.87;11.93;;;;;;;;;;5055961;28;20479;-72
2022/11/19 13:02:34;;;;;;;25.17;14.00;;;;;;;;;;5037348;28;20453;-73
2022/11/19 13:05:03;;;;;;;22.50;13.03;;;;;;;;;;5033578;28;21311;-72
2022/11/19 13:07:31;;;;;;;21.33;12.53;;;;;;;;;;5050874;28;20456;-73
2022/11/19 13:10:00;;;;;;;21.57;11.37;;;;;;;;;;5052085;28;20463;-73
2022/11/19 13:12:38;;;;;;;21.80;12.47;;;;;;;;;;5051642;28;20490;-73
2022/11/19 13:15:29;;;;;;;19.40;11.77;;;;;;;;;;5025699;28;20445;-71
2022/11/19 13:17:57;;;;;;;20.00;11.67;;;;;;;;;;5057092;28;21014;-71
2022/11/19 13:20:32;;;;;;;19.10;11.30;;;;;;;;;;5040927;28;20453;-71
2022/11/19 13:23:03;;;;;;;20.53;12.13;;;;;;;;;;5034816;28;20437;-73
2022/11/19 13:25:43;;;;;;;20.50;11.77;;;;;;;;;;5027387;28;20474;-74
2022/11/19 13:28:19;;;;;;;18.70;10.97;;;;;;;;;;5040172;28;20441;-71
2022/11/19 13:30:46;;;;;;;19.47;12.20;;;;;;;;;;5032102;28;20461;-73
2022/11/19 13:33:13;;;;;;;21.33;12.17;;;;;;;;;;5035624;28;20523;-72
2022/11/19 13:35:51;;;;;;;19.83;11.83;;;;;;;;;;5052509;28;20449;-73
2022/11/19 13:38:42;;;;;;;18.97;11.00;;;;;;;;;;5041860;28;20449;-70
2022/11/19 13:41:12;;;;;;;20.70;12.07;;;;;;;;;;5033530;28;20486;-72
2022/11/19 13:46:26;;;;;;;20.03;11.77;;;;;;;;;;5065367;28;21233;-76
2022/11/19 13:49:14;;;;;;;22.43;12.13;;;;;;;;;;5040036;28;20477;-74
2022/11/19 13:51:44;;;;;;;28.13;14.97;;;;;;;;;;5055374;28;20444;-74
2022/11/19 13:54:19;;;;;;;26.17;14.50;;;;;;;;;;5040991;28;21058;-74
2022/11/19 13:56:46;;;;;;;21.77;11.83;;;;;;;;;;5023544;28;20503;-72
2022/11/19 13:59:25;;;;;;;24.77;12.70;;;;;;;;;;5041403;28;20968;-69
2022/11/19 14:01:54;;;;;;;21.73;12.33;;;;;;;;;;5057460;28;20519;-69
2022/11/19 14:04:40;;;;;;;20.70;12.20;;;;;;;;;;5057054;28;20450;-70
2022/11/19 14:07:20;;;;;;;21.73;11.97;;;;;;;;;;5041438;28;20476;-71
2022/11/19 14:09:54;;;;;;;22.93;11.93;;;;;;;;;;5041862;28;20542;-71
2022/11/19 14:12:30;;;;;;;22.57;12.53;;;;;;;;;;5045987;28;20433;-71
2022/11/19 14:27:19;;;;;;;20.33;11.10;;;;;;;;;;5050403;28;20458;-74
2022/11/19 14:29:46;;;;;;;19.60;10.87;;;;;;;;;;5065529;28;20564;-74
2022/11/19 14:32:16;;;;;;;19.07;11.63;;;;;;;;;;5053432;28;20437;-71
2022/11/19 14:35:01;;;;;;;20.57;11.43;;;;;;;;;;5043938;28;20874;-74
2022/11/19 14:37:40;;;;;;;19.27;11.03;;;;;;;;;;5066575;28;20511;-69
2022/11/19 14:40:20;;;;;;;22.27;11.47;;;;;;;;;;5032536;28;20441;-69
2022/11/19 14:46:09;;;;;;;21.90;11.50;;;;;;;;;;5049759;28;20420;-76
2022/11/19 14:48:38;;;;;;;23.40;12.40;;;;;;;;;;5067189;28;20548;-69
2022/11/19 14:51:09;;;;;;;22.47;12.20;;;;;;;;;;5067887;28;21168;-74
2022/11/19 14:53:36;;;;;;;20.50;12.07;;;;;;;;;;5039220;28;21020;-70
2022/11/19 14:56:09;;;;;;;26.80;13.40;;;;;;;;;;5026554;28;20914;-69
2022/11/19 14:58:36;;;;;;;25.00;12.60;;;;;;;;;;5054836;28;20491;-68
2022/11/19 15:01:04;;;;;;;26.27;13.53;;;;;;;;;;5062406;28;20853;-70
2022/11/19 15:03:31;;;;;;;24.43;13.60;;;;;;;;;;5040142;28;20457;-70
2022/11/19 15:05:58;;;;;;;33.40;14.63;;;;;;;;;;5048270;28;20532;-69
2022/11/19 15:08:28;;;;;;;29.73;15.10;;;;;;;;;;5046722;28;20533;-72
2022/11/19 15:11:01;;;;;;;25.40;13.10;;;;;;;;;;5035977;28;20473;-76
2022/11/19 15:13:46;;;;;;;27.40;13.90;;;;;;;;;;5059390;28;20470;-76
2022/11/19 15:16:24;;;;;;;21.83;12.93;;;;;;;;;;5034052;28;20429;-78
2022/11/19 15:18:59;;;;;;;26.23;13.73;;;;;;;;;;5055699;28;20926;-75
2022/11/19 15:21:52;;;;;;;28.03;14.93;;;;;;;;;;5060734;28;20448;-78
2022/11/19 15:24:42;;;;;;;31.40;15.73;;;;;;;;;;5022148;28;20891;-76
2022/11/19 15:27:19;;;;;;;32.07;15.67;;;;;;;;;;5056362;28;20443;-74
2022/11/19 15:29:58;;;;;;;24.97;14.00;;;;;;;;;;5026510;28;20628;-74
2022/11/19 15:32:27;;;;;;;24.07;14.20;;;;;;;;;;5058865;28;20968;-70
2022/11/19 15:34:55;;;;;;;23.03;12.90;;;;;;;;;;5068637;28;20463;-73
2022/11/19 15:37:57;;;;;;;27.10;13.33;;;;;;;;;;5063423;28;20452;-73